createdAt,value
2023-06-10T00:02:29.966Z,17.89
2023-06-10T00:04:58.514Z,17.87
2023-06-10T00:07:26.052Z,17.97
2023-06-10T00:09:53.415Z,17.94
2023-06-10T00:12:21.542Z,17.93
2023-06-10T00:14:51.398Z,17.97
2023-06-10T00:17:19.032Z,18.00
2023-06-10T00:19:48.392Z,17.96
2023-06-10T00:22:15.922Z,17.97
2023-06-10T00:24:43.597Z,17.98
2023-06-10T00:27:10.891Z,18.07
2023-06-10T00:29:38.278Z,17.97
2023-06-10T00:32:06.419Z,17.97
2023-06-10T00:34:36.741Z,17.96
2023-06-10T00:37:04.487Z,17.96
2023-06-10T00:39:31.829Z,18.01
2023-06-10T00:41:59.428Z,18.05
2023-06-10T00:44:27.815Z,18.17
2023-06-10T00:46:57.005Z,18.08
2023-06-10T00:49:24.379Z,18.10
2023-06-10T00:51:52.879Z,18.18
2023-06-10T00:54:20.771Z,18.17
2023-06-10T00:56:48.547Z,18.21
2023-06-10T00:59:16.132Z,18.11
2023-06-10T01:01:44.662Z,18.17
2023-06-10T01:04:13.541Z,18.23
2023-06-10T01:07:10.903Z,18.24
2023-06-10T01:10:00.810Z,18.13
2023-06-10T01:12:33.147Z,18.15
2023-06-10T01:15:01.707Z,18.14
2023-06-10T01:17:29.328Z,18.18
2023-06-10T01:19:59.921Z,18.27
2023-06-10T01:22:33.550Z,18.28
2023-06-10T01:25:01.674Z,18.23
2023-06-10T01:27:32.953Z,18.18
2023-06-10T01:30:04.752Z,18.14
2023-06-10T01:32:38.445Z,18.11
2023-06-10T01:35:07.131Z,17.96
2023-06-10T01:37:37.054Z,17.89
2023-06-10T01:40:07.249Z,17.79
2023-06-10T01:42:36.211Z,17.83
2023-06-10T01:45:03.777Z,17.86
2023-06-10T01:47:31.085Z,17.74
2023-06-10T01:49:59.740Z,17.67
2023-06-10T01:52:27.257Z,17.55
2023-06-10T01:54:55.366Z,17.53
2023-06-10T01:57:22.760Z,17.55
2023-06-10T01:59:50.021Z,17.56
2023-06-10T02:02:17.368Z,17.50
2023-06-10T02:04:44.598Z,17.43
2023-06-10T02:07:13.393Z,17.36
2023-06-10T02:09:40.764Z,17.35
2023-06-10T02:12:08.617Z,17.42
2023-06-10T02:14:36.244Z,17.47
2023-06-10T02:17:03.677Z,17.38
2023-06-10T02:19:31.976Z,17.36
2023-06-10T02:21:59.423Z,17.43
2023-06-10T02:24:26.724Z,17.43
2023-06-10T02:26:54.490Z,17.50
2023-06-10T02:29:23.366Z,17.52
2023-06-10T02:31:51.203Z,17.39
2023-06-10T02:34:18.499Z,17.22
2023-06-10T02:36:46.263Z,17.12
2023-06-10T02:39:14.396Z,17.18
2023-06-10T02:41:42.429Z,17.12
2023-06-10T02:44:09.650Z,17.18
2023-06-10T02:46:37.157Z,17.22
2023-06-10T02:49:05.612Z,17.25
2023-06-10T02:51:33.147Z,17.25
2023-06-10T02:54:03.086Z,17.26
2023-06-10T02:56:30.500Z,17.35
2023-06-10T02:59:01.535Z,17.39
2023-06-10T03:01:32.867Z,17.32
2023-06-10T03:04:08.381Z,17.26
2023-06-10T03:06:36.737Z,17.26
2023-06-10T03:09:12.699Z,17.28
2023-06-10T03:11:42.385Z,17.26
2023-06-10T03:14:09.742Z,17.16
2023-06-10T03:16:41.572Z,17.18
2023-06-10T03:19:10.280Z,17.18
2023-06-10T03:21:42.706Z,17.14
2023-06-10T03:24:12.031Z,17.05
2023-06-10T03:26:39.693Z,17.05
2023-06-10T03:29:08.541Z,17.11
2023-06-10T03:31:37.891Z,17.15
2023-06-10T03:34:07.450Z,17.21
2023-06-10T03:36:34.706Z,17.28
2023-06-10T03:39:02.715Z,17.43
2023-06-10T03:41:31.297Z,17.34
2023-06-10T03:43:58.797Z,17.43
2023-06-10T03:46:26.313Z,17.52
2023-06-10T03:48:53.820Z,17.56
2023-06-10T03:51:21.090Z,17.56
2023-06-10T03:53:48.645Z,17.52
2023-06-10T03:56:15.991Z,17.57
2023-06-10T03:58:45.941Z,17.56
2023-06-10T04:01:15.347Z,17.69
2023-06-10T04:03:42.994Z,17.76
2023-06-10T04:06:10.789Z,17.66
2023-06-10T04:08:38.293Z,17.67
2023-06-10T04:11:05.616Z,17.79
2023-06-10T04:13:32.949Z,17.79
2023-06-10T04:16:00.926Z,17.77
2023-06-10T04:18:28.516Z,17.74
2023-06-10T04:20:59.499Z,17.77
2023-06-10T04:23:27.383Z,17.91
2023-06-10T04:25:55.392Z,18.04
2023-06-10T04:28:22.876Z,18.10
2023-06-10T04:30:50.363Z,18.14
2023-06-10T04:33:17.677Z,18.20
2023-06-10T04:35:45.723Z,18.28
2023-06-10T04:38:15.612Z,18.48
2023-06-10T04:40:43.594Z,18.51
2023-06-10T04:43:12.351Z,18.58
2023-06-10T04:45:39.745Z,18.65
2023-06-10T04:48:08.816Z,18.63
2023-06-10T04:50:36.294Z,18.62
2023-06-10T04:53:03.715Z,18.55
2023-06-10T04:55:32.200Z,18.59
2023-06-10T04:57:59.604Z,18.62
2023-06-10T05:00:26.854Z,18.69
2023-06-10T05:02:54.573Z,18.79
2023-06-10T05:05:21.877Z,18.68
2023-06-10T05:07:49.321Z,18.77
2023-06-10T05:10:16.608Z,18.86
2023-06-10T05:12:43.957Z,18.83
2023-06-10T05:15:11.980Z,18.79
2023-06-10T05:17:39.650Z,18.93
2023-06-10T05:20:07.672Z,18.90
2023-06-10T05:22:35.658Z,18.83
2023-06-10T05:25:03.012Z,18.61
2023-06-10T05:27:30.384Z,18.75
2023-06-10T05:29:57.894Z,18.86
2023-06-10T05:32:25.292Z,19.09
2023-06-10T05:34:52.544Z,19.23
2023-06-10T05:37:19.859Z,19.34
2023-06-10T05:39:47.183Z,19.48
2023-06-10T05:42:14.486Z,19.60
2023-06-10T05:44:41.825Z,19.69
2023-06-10T05:47:09.331Z,19.68
2023-06-10T05:49:36.586Z,19.72
2023-06-10T05:52:04.221Z,19.72
2023-06-10T05:54:31.535Z,19.92
2023-06-10T05:56:58.950Z,19.86
2023-06-10T05:59:26.184Z,19.89
2023-06-10T06:01:53.535Z,20.28
2023-06-10T06:04:21.043Z,20.33
2023-06-10T06:06:48.478Z,20.60
2023-06-10T06:09:15.735Z,20.81
2023-06-10T06:11:43.030Z,21.16
2023-06-10T06:14:10.337Z,21.19
2023-06-10T06:16:37.823Z,21.09
2023-06-10T06:19:05.182Z,21.07
2023-06-10T06:21:32.551Z,20.95
2023-06-10T06:24:00.630Z,20.92
2023-06-10T06:26:28.174Z,20.88
2023-06-10T06:28:55.571Z,21.25
2023-06-10T06:31:22.863Z,22.47
2023-06-10T06:33:50.138Z,22.51
2023-06-10T06:36:17.623Z,22.62
2023-06-10T06:38:44.938Z,22.63
2023-06-10T06:41:12.263Z,22.21
2023-06-10T06:43:39.525Z,22.15
2023-06-10T06:46:26.210Z,21.89
2023-06-10T06:48:53.686Z,22.24
2023-06-10T06:51:20.972Z,21.86
2023-06-10T06:53:48.849Z,21.46
2023-06-10T06:56:16.175Z,21.49
2023-06-10T06:58:43.538Z,21.16
2023-06-10T07:01:10.913Z,20.87
2023-06-10T07:03:38.375Z,20.47
2023-06-10T07:06:06.116Z,20.29
2023-06-10T07:08:33.457Z,20.19
2023-06-10T07:11:00.851Z,20.30
2023-06-10T07:13:28.247Z,20.43
2023-06-10T07:15:55.694Z,20.47
2023-06-10T07:18:23.061Z,20.50
2023-06-10T07:20:50.408Z,20.66
2023-06-10T07:23:18.693Z,20.94
2023-06-10T07:25:46.035Z,20.83
2023-06-10T07:28:13.304Z,21.18
2023-06-10T07:30:40.715Z,21.62
2023-06-10T07:33:08.980Z,21.60
2023-06-10T07:35:36.536Z,21.93
2023-06-10T07:38:03.920Z,21.75
2023-06-10T07:40:33.529Z,21.02
2023-06-10T07:43:02.600Z,21.14
2023-06-10T07:45:30.047Z,21.04
2023-06-10T07:47:57.718Z,21.04
2023-06-10T07:50:25.043Z,21.12
2023-06-10T07:52:52.503Z,21.05
2023-06-10T07:55:19.837Z,21.04
2023-06-10T07:57:47.140Z,21.53
2023-06-10T08:00:14.617Z,22.04
2023-06-10T08:02:42.181Z,22.51
2023-06-10T08:05:09.938Z,23.33
2023-06-10T08:07:37.519Z,23.70
2023-06-10T08:10:08.171Z,25.12
2023-06-10T08:12:35.892Z,26.18
2023-06-10T08:15:05.259Z,26.72
2023-06-10T08:17:32.768Z,25.43
2023-06-10T08:20:00.110Z,23.94
2023-06-10T08:22:27.901Z,25.38
2023-06-10T08:24:55.720Z,26.61
2023-06-10T08:27:23.138Z,26.56
2023-06-10T08:29:50.439Z,26.78
2023-06-10T08:32:17.859Z,27.07
2023-06-10T08:34:45.213Z,26.67
2023-06-10T08:37:12.548Z,25.75
2023-06-10T08:39:39.860Z,25.94
2023-06-10T08:42:08.916Z,24.73
2023-06-10T08:44:39.123Z,24.61
2023-06-10T08:47:19.305Z,25.29
2023-06-10T08:49:47.602Z,23.99
2023-06-10T08:52:22.347Z,24.50
2023-06-10T08:54:58.288Z,23.67
2023-06-10T08:57:26.439Z,23.71
2023-06-10T08:59:54.525Z,24.46
2023-06-10T09:02:22.105Z,23.67
2023-06-10T09:04:49.754Z,22.98
2023-06-10T09:07:17.356Z,23.14
2023-06-10T09:09:45.504Z,23.78
2023-06-10T09:12:14.523Z,23.70
2023-06-10T09:14:43.061Z,23.44
2023-06-10T09:17:10.462Z,23.43
2023-06-10T09:19:38.301Z,23.00
2023-06-10T09:22:06.048Z,22.68
2023-06-10T09:24:34.052Z,22.61
2023-06-10T09:27:07.840Z,22.83
2023-06-10T09:29:58.984Z,22.83
2023-06-10T09:32:26.414Z,23.20
2023-06-10T09:34:54.045Z,23.28
2023-06-10T09:37:22.592Z,23.00
2023-06-10T09:40:06.430Z,23.23
2023-06-10T09:42:35.663Z,23.44
2023-06-10T09:45:04.565Z,23.85
2023-06-10T09:47:31.981Z,23.78
2023-06-10T09:49:59.290Z,23.68
2023-06-10T09:52:28.684Z,23.65
2023-06-10T09:55:02.702Z,23.82
2023-06-10T09:57:37.296Z,24.06
2023-06-10T10:00:11.708Z,24.12
2023-06-10T10:02:54.755Z,24.37
2023-06-10T10:05:23.828Z,24.20
2023-06-10T10:07:51.883Z,23.92
2023-06-10T10:10:20.709Z,24.01
2023-06-10T10:12:48.728Z,24.25
2023-06-10T10:15:18.288Z,24.01
2023-06-10T10:17:58.976Z,24.09
2023-06-10T10:20:28.583Z,24.01
2023-06-10T10:22:57.990Z,24.22
2023-06-10T10:25:29.679Z,24.19
2023-06-10T10:28:12.475Z,24.01
2023-06-10T10:30:48.119Z,23.97
2023-06-10T10:33:20.533Z,24.44
2023-06-10T10:35:47.975Z,24.55
2023-06-10T10:38:15.397Z,24.46
2023-06-10T10:40:42.947Z,24.49
2023-06-10T10:43:10.281Z,24.35
2023-06-10T10:45:37.655Z,24.47
2023-06-10T10:48:14.109Z,24.35
2023-06-10T10:50:41.815Z,24.33
2023-06-10T10:53:09.304Z,24.63
2023-06-10T10:55:36.731Z,24.47
2023-06-10T10:58:04.715Z,24.36
2023-06-10T11:00:33.214Z,24.37
2023-06-10T11:03:05.881Z,24.40
2023-06-10T11:05:50.062Z,23.91
2023-06-10T11:08:29.777Z,24.12
2023-06-10T11:10:57.436Z,24.05
2023-06-10T11:13:25.268Z,23.84
2023-06-10T11:15:52.793Z,23.57
2023-06-10T11:18:26.747Z,24.01
2023-06-10T11:20:57.641Z,24.56
2023-06-10T11:23:28.140Z,24.99
2023-06-10T11:26:17.276Z,24.83
2023-06-10T11:28:47.460Z,24.87
2023-06-10T11:31:24.100Z,25.14
2023-06-10T11:33:54.361Z,25.14
2023-06-10T11:36:30.935Z,25.85
2023-06-10T11:39:00.060Z,24.80
2023-06-10T11:41:28.366Z,24.19
2023-06-10T11:43:57.984Z,24.10
2023-06-10T11:46:27.962Z,24.36
2023-06-10T11:49:01.834Z,24.80
2023-06-10T11:51:30.880Z,25.05
2023-06-10T11:53:58.213Z,24.23
2023-06-10T11:56:29.276Z,24.22
2023-06-10T11:58:58.372Z,24.53
2023-06-10T12:01:29.721Z,24.94
2023-06-10T12:04:08.327Z,25.01
2023-06-10T12:06:54.647Z,25.38
2023-06-10T12:09:27.392Z,25.19
2023-06-10T12:12:04.012Z,25.55
2023-06-10T12:15:00.159Z,25.21
2023-06-10T12:17:37.703Z,24.91
2023-06-10T12:20:09.804Z,25.36
2023-06-10T12:22:41.121Z,25.72
2023-06-10T12:25:09.783Z,25.17
2023-06-10T12:27:37.864Z,25.34
2023-06-10T12:30:07.188Z,25.04
2023-06-10T12:32:43.468Z,25.49
2023-06-10T12:35:13.530Z,25.34
2023-06-10T12:37:43.563Z,25.72
2023-06-10T12:40:11.961Z,25.70
2023-06-10T12:42:39.411Z,25.65
2023-06-10T12:45:10.616Z,26.04
2023-06-10T12:47:42.510Z,26.14
2023-06-10T12:50:10.564Z,26.04
2023-06-10T12:52:38.036Z,25.75
2023-06-10T12:55:06.179Z,24.81
2023-06-10T12:57:33.510Z,24.59
2023-06-10T13:00:04.188Z,24.80
2023-06-10T13:02:32.739Z,24.70
2023-06-10T13:05:00.322Z,25.15
2023-06-10T13:07:27.978Z,25.67
2023-06-10T13:09:55.276Z,26.08
2023-06-10T13:12:30.659Z,26.49
2023-06-10T13:15:06.328Z,26.08
2023-06-10T13:17:35.451Z,25.52
2023-06-10T13:20:06.709Z,25.24
2023-06-10T13:22:34.280Z,25.46
2023-06-10T13:25:02.312Z,25.46
2023-06-10T13:27:29.788Z,25.93
2023-06-10T13:29:57.127Z,26.20
2023-06-10T13:32:24.515Z,25.63
2023-06-10T13:34:52.092Z,25.34
2023-06-10T13:37:19.664Z,25.73
2023-06-10T13:39:51.857Z,26.13
2023-06-10T13:42:19.497Z,26.24
2023-06-10T13:44:48.568Z,26.20
2023-06-10T13:47:16.463Z,25.82
2023-06-10T13:49:43.820Z,25.34
2023-06-10T13:52:11.075Z,25.69
2023-06-10T13:54:38.374Z,25.98
2023-06-10T13:57:06.046Z,26.23
2023-06-10T13:59:33.336Z,26.33
2023-06-10T14:02:01.569Z,26.12
2023-06-10T14:04:28.995Z,25.61
2023-06-10T14:06:56.391Z,25.32
2023-06-10T14:09:23.681Z,25.66
2023-06-10T14:11:50.999Z,25.89
2023-06-10T14:14:18.389Z,26.04
2023-06-10T14:16:45.788Z,25.41
2023-06-10T14:19:13.079Z,25.85
2023-06-10T14:21:40.479Z,25.76
2023-06-10T14:24:07.907Z,25.32
2023-06-10T14:26:35.456Z,25.28
2023-06-10T14:29:03.862Z,24.99
2023-06-10T14:31:31.285Z,25.03
2023-06-10T14:33:58.572Z,25.42
2023-06-10T14:36:25.890Z,25.73
2023-06-10T14:38:53.277Z,25.94
2023-06-10T14:41:20.951Z,25.53
2023-06-10T14:43:48.199Z,25.83
2023-06-10T14:46:15.662Z,26.04
2023-06-10T14:48:42.949Z,25.77
2023-06-10T14:51:10.728Z,25.76
2023-06-10T14:53:38.038Z,25.89
2023-06-10T14:56:05.981Z,25.86
2023-06-10T14:58:33.263Z,26.18
2023-06-10T15:01:00.797Z,26.28
2023-06-10T15:03:28.111Z,25.86
2023-06-10T15:05:55.516Z,25.61
2023-06-10T15:08:22.870Z,25.18
2023-06-10T15:10:50.269Z,24.99
2023-06-10T15:13:17.550Z,25.28
2023-06-10T15:15:44.993Z,25.50
2023-06-10T15:18:12.303Z,25.46
2023-06-10T15:20:39.687Z,25.49
2023-06-10T15:23:08.998Z,25.61
2023-06-10T15:25:36.949Z,25.63
2023-06-10T15:28:06.196Z,25.73
2023-06-10T15:30:33.671Z,26.08
2023-06-10T15:33:01.040Z,26.12
2023-06-10T15:35:28.522Z,26.18
2023-06-10T15:37:55.836Z,26.20
2023-06-10T15:40:23.232Z,25.50
2023-06-10T15:42:50.798Z,25.14
2023-06-10T15:45:18.293Z,24.83
2023-06-10T15:47:45.640Z,24.39
2023-06-10T15:50:12.978Z,24.28
2023-06-10T15:52:40.293Z,24.12
2023-06-10T15:55:08.230Z,23.92
2023-06-10T15:57:35.840Z,23.89
2023-06-10T16:00:03.851Z,23.81
2023-06-10T16:02:33.011Z,23.65
2023-06-10T16:05:02.385Z,23.65
2023-06-10T16:07:29.670Z,23.46
2023-06-10T16:09:57.039Z,23.50
2023-06-10T16:12:24.320Z,23.33
2023-06-10T16:14:51.636Z,23.43
2023-06-10T16:17:19.007Z,23.27
2023-06-10T16:19:46.429Z,23.46
2023-06-10T16:22:13.797Z,23.47
2023-06-10T16:24:41.560Z,23.50
2023-06-10T16:27:08.836Z,23.51
2023-06-10T16:29:36.189Z,23.54
2023-06-10T16:32:03.887Z,23.49
2023-06-10T16:34:31.348Z,23.40
2023-06-10T16:36:58.598Z,23.21
2023-06-10T16:39:25.903Z,23.23
2023-06-10T16:41:53.256Z,23.16
2023-06-10T16:44:20.750Z,22.96
2023-06-10T16:46:48.250Z,22.77
2023-06-10T16:49:15.731Z,22.69
2023-06-10T16:51:43.147Z,22.75
2023-06-10T16:54:10.568Z,22.95
2023-06-10T16:56:37.844Z,22.85
2023-06-10T16:59:05.197Z,22.83
2023-06-10T17:01:32.535Z,22.77
2023-06-10T17:04:00.086Z,22.72
2023-06-10T17:06:27.342Z,22.69
2023-06-10T17:08:54.796Z,22.75
2023-06-10T17:11:22.709Z,22.63
2023-06-10T17:13:50.160Z,22.54
2023-06-10T17:16:17.617Z,22.48
2023-06-10T17:18:45.221Z,22.49
2023-06-10T17:21:12.602Z,22.48
2023-06-10T17:23:40.056Z,22.40
2023-06-10T17:26:07.382Z,22.31
2023-06-10T17:28:34.803Z,22.14
2023-06-10T17:31:02.152Z,22.13
2023-06-10T17:33:29.554Z,22.00
2023-06-10T17:35:56.998Z,21.93
2023-06-10T17:38:24.324Z,21.94
2023-06-10T17:40:51.664Z,21.90
2023-06-10T17:43:19.297Z,21.86
2023-06-10T17:45:46.608Z,21.80
2023-06-10T17:48:14.057Z,21.80
2023-06-10T17:50:41.464Z,21.79
2023-06-10T17:53:08.897Z,21.70
2023-06-10T17:55:36.343Z,21.62
2023-06-10T17:58:03.753Z,21.70
2023-06-10T18:00:31.172Z,21.69
2023-06-10T18:02:58.779Z,21.57
2023-06-10T18:05:26.191Z,21.53
2023-06-10T18:07:53.621Z,21.47
2023-06-10T18:10:21.199Z,21.35
2023-06-10T18:12:48.630Z,21.24
2023-06-10T18:15:16.006Z,21.19
2023-06-10T18:17:43.345Z,21.14
2023-06-10T18:20:12.320Z,21.12
2023-06-10T18:22:39.698Z,21.09
2023-06-10T18:25:07.767Z,20.99
2023-06-10T18:27:35.677Z,20.91
2023-06-10T18:30:03.116Z,20.87
2023-06-10T18:32:30.765Z,20.94
2023-06-10T18:34:58.092Z,20.92
2023-06-10T18:37:25.561Z,20.87
2023-06-10T18:39:52.929Z,20.80
2023-06-10T18:42:20.553Z,20.84
2023-06-10T18:44:47.819Z,20.67
2023-06-10T18:47:15.175Z,20.64
2023-06-10T18:49:42.488Z,20.67
2023-06-10T18:52:09.925Z,20.67
2023-06-10T18:54:37.281Z,20.61
2023-06-10T18:57:04.893Z,20.71
2023-06-10T18:59:32.210Z,20.66
2023-06-10T19:01:59.585Z,20.56
2023-06-10T19:04:26.923Z,20.43
2023-06-10T19:06:54.353Z,20.50
2023-06-10T19:09:21.765Z,20.54
2023-06-10T19:11:49.160Z,20.49
2023-06-10T19:14:16.460Z,20.39
2023-06-10T19:16:43.869Z,20.40
2023-06-10T19:19:11.152Z,20.39
2023-06-10T19:21:38.590Z,20.28
2023-06-10T19:24:06.241Z,20.22
2023-06-10T19:26:33.623Z,20.15
2023-06-10T19:29:01.108Z,20.16
2023-06-10T19:31:28.584Z,20.22
2023-06-10T19:33:55.985Z,20.09
2023-06-10T19:36:23.391Z,20.10
2023-06-10T19:38:52.068Z,20.06
2023-06-10T19:41:21.381Z,19.93
2023-06-10T19:43:48.719Z,20.04
2023-06-10T19:46:21.254Z,20.15
2023-06-10T19:48:48.903Z,19.98
2023-06-10T19:51:19.647Z,20.02
2023-06-10T19:53:47.833Z,19.92
2023-06-10T19:56:20.000Z,19.85
2023-06-10T19:58:47.814Z,19.75
2023-06-10T20:01:15.314Z,19.71
2023-06-10T20:03:42.784Z,19.78
2023-06-10T20:06:10.073Z,19.69
2023-06-10T20:08:37.659Z,19.60
2023-06-10T20:11:04.968Z,19.62
2023-06-10T20:13:32.350Z,19.58
2023-06-10T20:15:59.823Z,19.50
2023-06-10T20:18:27.247Z,19.55
2023-06-10T20:20:54.566Z,19.60
2023-06-10T20:23:22.019Z,19.60
2023-06-10T20:25:49.297Z,19.50
2023-06-10T20:28:16.691Z,19.50
2023-06-10T20:30:43.955Z,19.38
2023-06-10T20:33:11.634Z,19.35
2023-06-10T20:35:38.916Z,19.34
2023-06-10T20:38:06.382Z,19.28
2023-06-10T20:40:34.224Z,19.28
2023-06-10T20:43:01.530Z,19.27
2023-06-10T20:45:28.811Z,19.28
2023-06-10T20:47:56.344Z,19.34
2023-06-10T20:50:23.744Z,19.33
2023-06-10T20:52:51.725Z,19.40
2023-06-10T20:55:19.121Z,19.30
2023-06-10T20:57:46.488Z,19.27
2023-06-10T21:00:14.271Z,19.35
2023-06-10T21:02:41.928Z,19.27
2023-06-10T21:05:09.656Z,19.28
2023-06-10T21:07:37.299Z,19.37
2023-06-10T21:10:04.905Z,19.35
2023-06-10T21:12:32.256Z,19.28
2023-06-10T21:14:59.530Z,19.26
2023-06-10T21:17:27.088Z,19.21
2023-06-10T21:19:54.448Z,19.21
2023-06-10T21:22:21.793Z,19.28
2023-06-10T21:24:49.077Z,19.27
2023-06-10T21:27:17.163Z,19.34
2023-06-10T21:29:44.599Z,19.34
2023-06-10T21:32:12.624Z,19.24
2023-06-10T21:34:39.967Z,19.27
2023-06-10T21:37:08.398Z,19.24
2023-06-10T21:39:38.355Z,19.30
2023-06-10T21:42:06.135Z,19.20
2023-06-10T21:44:33.422Z,19.26
2023-06-10T21:47:00.859Z,19.28
2023-06-10T21:49:28.264Z,19.31
2023-06-10T21:51:55.592Z,19.23
2023-06-10T21:54:24.003Z,19.33
2023-06-10T21:56:51.385Z,19.40
2023-06-10T21:59:20.908Z,19.33
2023-06-10T22:01:48.193Z,19.35
2023-06-10T22:04:15.554Z,19.27
2023-06-10T22:06:43.946Z,19.23
2023-06-10T22:09:11.195Z,19.26
2023-06-10T22:11:38.582Z,19.31
2023-06-10T22:14:05.906Z,19.34
2023-06-10T22:16:33.334Z,19.21
2023-06-10T22:19:00.667Z,19.20
2023-06-10T22:21:28.084Z,19.20
2023-06-10T22:23:55.842Z,19.21
2023-06-10T22:26:23.197Z,19.20
2023-06-10T22:28:50.451Z,19.21
2023-06-10T22:31:17.820Z,19.11
2023-06-10T22:33:45.463Z,19.10
2023-06-10T22:36:12.846Z,19.19
2023-06-10T22:38:40.078Z,19.16
2023-06-10T22:41:07.431Z,19.21
2023-06-10T22:43:34.744Z,19.20
2023-06-10T22:46:02.081Z,19.28
2023-06-10T22:48:29.438Z,19.20
2023-06-10T22:50:56.861Z,19.23
2023-06-10T22:53:24.221Z,19.21
2023-06-10T22:55:51.625Z,19.23
2023-06-10T22:58:21.145Z,19.21
2023-06-10T23:00:48.691Z,19.19
2023-06-10T23:03:16.510Z,19.17
2023-06-10T23:05:43.797Z,19.23
2023-06-10T23:08:11.152Z,19.24
2023-06-10T23:10:38.488Z,19.30
2023-06-10T23:13:05.723Z,19.23
2023-06-10T23:15:33.123Z,19.26
2023-06-10T23:18:01.425Z,19.27
2023-06-10T23:20:28.846Z,19.24
2023-06-10T23:22:56.074Z,19.33
2023-06-10T23:25:26.066Z,19.37
2023-06-10T23:27:53.384Z,19.34
2023-06-10T23:30:20.884Z,19.34
2023-06-10T23:32:48.359Z,19.31
2023-06-10T23:35:20.290Z,19.28
2023-06-10T23:37:48.054Z,19.35
2023-06-10T23:40:16.007Z,19.43
2023-06-10T23:42:43.412Z,19.30
2023-06-10T23:45:11.583Z,19.20
2023-06-10T23:47:39.170Z,19.13
2023-06-10T23:50:07.209Z,19.10
2023-06-10T23:52:34.582Z,19.13
2023-06-10T23:55:01.822Z,19.04
2023-06-10T23:57:29.153Z,19.09
2023-06-10T23:59:56.408Z,19.04
